createdAt,value
2018-01-10T00:00:06.740Z,100438.95
2018-01-10T00:02:34.770Z,100443.69
2018-01-10T00:05:06.098Z,100438.56
2018-01-10T00:07:34.119Z,100437.66
2018-01-10T00:10:08.660Z,100431.00
2018-01-10T00:12:36.675Z,100426.30
2018-01-10T00:15:06.528Z,100421.80
2018-01-10T00:17:34.698Z,100422.19
2018-01-10T00:20:09.321Z,100421.80
2018-01-10T00:22:37.955Z,100415.20
2018-01-10T00:25:06.707Z,100415.59
2018-01-10T00:27:34.757Z,100410.39
2018-01-10T00:30:06.200Z,100398.95
2018-01-10T00:32:34.232Z,100400.38
2018-01-10T00:35:08.632Z,100393.78
2018-01-10T00:37:36.693Z,100395.19
2018-01-10T00:40:07.842Z,100396.55
2018-01-10T00:42:35.871Z,100393.87
2018-01-10T00:45:07.416Z,100391.65
2018-01-10T00:47:35.448Z,100388.20
2018-01-10T00:50:06.620Z,100395.19
2018-01-10T00:52:34.664Z,100391.27
2018-01-10T00:55:09.283Z,100390.33
2018-01-10T00:57:37.357Z,100385.80
2018-01-10T01:00:07.212Z,100389.95
2018-01-10T01:02:35.236Z,100386.37
2018-01-10T01:05:06.314Z,100389.17
2018-01-10T01:07:34.279Z,100388.05
2018-01-10T01:10:08.749Z,100388.20
2018-01-10T01:12:36.768Z,100389.33
2018-01-10T01:15:06.984Z,100388.63
2018-01-10T01:17:34.985Z,100386.26
2018-01-10T01:20:09.970Z,100389.90
2018-01-10T01:22:38.260Z,100390.25
2018-01-10T01:25:07.184Z,100396.69
2018-01-10T01:27:35.230Z,100392.77
2018-01-10T01:30:10.022Z,100391.53
2018-01-10T01:32:38.040Z,100396.34
2018-01-10T01:35:07.776Z,100394.31
2018-01-10T01:37:35.800Z,100392.65
2018-01-10T01:40:06.731Z,100389.33
2018-01-10T01:42:34.752Z,100386.61
2018-01-10T01:45:05.964Z,100393.55
2018-01-10T01:47:33.972Z,100397.94
2018-01-10T01:50:05.045Z,100392.89
2018-01-10T01:52:33.052Z,100396.11
2018-01-10T01:55:01.052Z,100391.09
2018-01-10T01:57:31.965Z,100392.27
2018-01-10T01:59:59.971Z,100396.03
2018-01-10T02:02:28.204Z,100390.98
2018-01-10T02:04:56.210Z,100395.17
2018-01-10T02:07:24.260Z,100390.02
2018-01-10T02:09:52.285Z,100394.91
2018-01-10T02:12:20.317Z,100393.89
2018-01-10T02:14:48.364Z,100387.88
2018-01-10T02:17:16.390Z,100390.02
2018-01-10T02:19:44.418Z,100390.13
2018-01-10T02:22:12.431Z,100389.03
2018-01-10T02:24:40.464Z,100387.45
2018-01-10T02:27:08.466Z,100387.84
2018-01-10T02:29:36.498Z,100384.11
2018-01-10T02:32:05.044Z,100379.69
2018-01-10T02:34:33.064Z,100385.19
2018-01-10T02:37:01.080Z,100384.92
2018-01-10T02:39:29.068Z,100392.11
2018-01-10T02:41:57.105Z,100380.79
2018-01-10T02:44:25.101Z,100386.27
2018-01-10T02:46:53.126Z,100384.52
2018-01-10T02:49:21.131Z,100386.44
2018-01-10T02:51:50.116Z,100383.22
2018-01-10T02:54:18.112Z,100383.66
2018-01-10T02:56:46.132Z,100395.18
2018-01-10T02:59:14.141Z,100389.83
2018-01-10T03:01:42.441Z,100389.63
2018-01-10T03:04:10.468Z,100391.88
2018-01-10T03:06:38.477Z,100394.63
2018-01-10T03:09:06.604Z,100391.49
2018-01-10T03:11:34.608Z,100386.59
2018-01-10T03:14:02.864Z,100380.29
2018-01-10T03:16:31.165Z,100387.44
2018-01-10T03:18:59.189Z,100386.07
2018-01-10T03:21:27.185Z,100377.11
2018-01-10T03:23:55.409Z,100372.72
2018-01-10T03:26:23.400Z,100377.34
2018-01-10T03:28:51.416Z,100374.75
2018-01-10T03:31:19.407Z,100378.19
2018-01-10T03:33:47.434Z,100372.11
2018-01-10T03:36:15.414Z,100364.24
2018-01-10T03:38:44.129Z,100368.00
2018-01-10T03:41:12.126Z,100372.20
2018-01-10T03:43:40.151Z,100375.89
2018-01-10T03:46:08.371Z,100377.98
2018-01-10T03:48:36.601Z,100387.38
2018-01-10T03:51:04.737Z,100381.05
2018-01-10T03:53:33.115Z,100377.72
2018-01-10T03:56:01.113Z,100381.22
2018-01-10T03:58:29.138Z,100382.34
2018-01-10T04:00:57.140Z,100384.83
2018-01-10T04:03:25.184Z,100381.34
2018-01-10T04:05:53.390Z,100380.94
2018-01-10T04:08:21.412Z,100375.16
2018-01-10T04:10:49.429Z,100379.04
2018-01-10T04:13:17.430Z,100376.98
2018-01-10T04:15:45.437Z,100372.55
2018-01-10T04:18:13.438Z,100377.63
2018-01-10T04:20:41.459Z,100372.17
2018-01-10T04:23:09.660Z,100372.08
2018-01-10T04:25:37.692Z,100374.77
2018-01-10T04:28:05.739Z,100370.55
2018-01-10T04:30:33.776Z,100367.52
2018-01-10T04:33:02.598Z,100371.16
2018-01-10T04:35:30.739Z,100368.87
2018-01-10T04:37:58.740Z,100361.50
2018-01-10T04:40:26.785Z,100362.59
2018-01-10T04:42:54.780Z,100366.59
2018-01-10T04:45:22.820Z,100370.75
2018-01-10T04:47:51.092Z,100371.63
2018-01-10T04:50:19.104Z,100364.14
2018-01-10T04:52:47.121Z,100369.41
2018-01-10T04:55:15.130Z,100366.98
2018-01-10T04:57:43.157Z,100363.25
2018-01-10T05:00:11.152Z,100366.40
2018-01-10T05:02:39.170Z,100357.50
2018-01-10T05:05:07.168Z,100360.55
2018-01-10T05:07:35.214Z,100358.34
2018-01-10T05:10:05.904Z,100356.97
2018-01-10T05:12:33.932Z,100359.83
2018-01-10T05:15:06.360Z,100359.09
2018-01-10T05:17:34.737Z,100361.22
2018-01-10T05:20:06.694Z,100365.48
2018-01-10T05:22:34.719Z,100366.51
2018-01-10T05:25:06.522Z,100368.80
2018-01-10T05:27:34.679Z,100372.64
2018-01-10T05:30:05.741Z,100371.05
2018-01-10T05:32:33.768Z,100370.97
2018-01-10T05:35:08.261Z,100373.48
2018-01-10T05:37:36.615Z,100364.88
2018-01-10T05:40:07.668Z,100369.03
2018-01-10T05:42:35.797Z,100364.28
2018-01-10T05:45:07.253Z,100361.42
2018-01-10T05:47:35.545Z,100362.43
2018-01-10T05:50:07.534Z,100357.41
2018-01-10T05:52:35.586Z,100356.30
2018-01-10T05:55:06.703Z,100365.52
2018-01-10T05:57:34.899Z,100365.59
2018-01-10T06:00:06.144Z,100364.24
2018-01-10T06:02:34.215Z,100352.19
2018-01-10T06:05:08.928Z,100363.70
2018-01-10T06:07:36.959Z,100364.91
2018-01-10T06:10:07.943Z,100370.23
2018-01-10T06:12:35.940Z,100362.13
2018-01-10T06:15:06.433Z,100368.28
2018-01-10T06:17:34.674Z,100362.47
2018-01-10T06:20:09.549Z,100372.52
2018-01-10T06:22:37.748Z,100368.92
2018-01-10T06:25:06.405Z,100373.22
2018-01-10T06:27:34.416Z,100367.37
2018-01-10T06:30:09.060Z,100365.58
2018-01-10T06:32:37.283Z,100379.89
2018-01-10T06:35:06.160Z,100378.77
2018-01-10T06:37:34.176Z,100378.27
2018-01-10T06:40:08.913Z,100375.09
2018-01-10T06:42:36.921Z,100382.08
2018-01-10T06:45:06.432Z,100377.69
2018-01-10T06:47:34.685Z,100378.34
2018-01-10T06:50:05.795Z,100386.14
2018-01-10T06:52:33.812Z,100384.05
2018-01-10T06:55:08.402Z,100384.67
2018-01-10T06:57:36.419Z,100390.53
2018-01-10T07:00:06.178Z,100386.92
2018-01-10T07:02:34.488Z,100382.84
2018-01-10T07:05:07.883Z,100385.75
2018-01-10T07:07:35.910Z,100384.09
2018-01-10T07:10:07.789Z,100389.20
2018-01-10T07:12:35.814Z,100388.28
2018-01-10T07:15:07.660Z,100385.11
2018-01-10T07:17:36.179Z,100386.38
2018-01-10T07:20:07.351Z,100382.84
2018-01-10T07:22:35.352Z,100392.50
2018-01-10T07:25:06.013Z,100384.28
2018-01-10T07:27:34.569Z,100394.95
2018-01-10T07:30:06.181Z,100388.87
2018-01-10T07:32:34.251Z,100394.72
2018-01-10T07:35:09.001Z,100398.17
2018-01-10T07:37:37.945Z,100399.61
2018-01-10T07:40:06.270Z,100399.02
2018-01-10T07:42:34.265Z,100386.53
2018-01-10T07:45:05.448Z,100394.22
2018-01-10T07:47:33.469Z,100396.85
2018-01-10T07:50:04.766Z,100394.14
2018-01-10T07:52:32.784Z,100396.94
2018-01-10T07:55:05.523Z,100402.33
2018-01-10T07:57:33.522Z,100404.22
2018-01-10T08:00:04.915Z,100407.56
2018-01-10T08:02:32.964Z,100408.73
2018-01-10T08:05:05.740Z,100410.51
2018-01-10T08:07:33.724Z,100409.23
2018-01-10T08:10:04.900Z,100413.45
2018-01-10T08:12:33.089Z,100409.03
2018-01-10T08:17:35.830Z,100419.35
2018-01-10T08:20:06.074Z,100421.14
2018-01-10T08:22:34.112Z,100425.28
2018-01-10T08:25:09.206Z,100424.16
2018-01-10T08:27:37.199Z,100428.08
2018-01-10T08:30:06.292Z,100434.67
2018-01-10T08:32:34.344Z,100428.47
2018-01-10T08:35:08.997Z,100430.22
2018-01-10T08:37:37.213Z,100430.95
2018-01-10T08:40:07.034Z,100427.45
2018-01-10T08:42:35.024Z,100429.65
2018-01-10T08:45:06.120Z,100432.75
2018-01-10T08:47:34.100Z,100430.30
2018-01-10T08:50:08.775Z,100426.37
2018-01-10T08:52:37.037Z,100429.91
2018-01-10T08:55:06.389Z,100414.28
2018-01-10T08:57:34.406Z,100421.81
2018-01-10T09:00:09.163Z,100420.70
2018-01-10T09:02:37.335Z,100416.36
2018-01-10T09:05:07.294Z,100424.97
2018-01-10T09:07:35.304Z,100419.53
2018-01-10T09:10:03.363Z,100423.41
2018-01-10T09:12:31.956Z,100418.02
2018-01-10T09:15:00.259Z,100416.53
2018-01-10T09:17:28.245Z,100423.31
2018-01-10T09:19:56.238Z,100418.30
2018-01-10T09:22:24.261Z,100422.88
2018-01-10T09:24:54.436Z,100423.02
2018-01-10T09:27:22.469Z,100414.19
2018-01-10T09:29:55.424Z,100416.20
2018-01-10T09:32:23.468Z,100419.63
2018-01-10T09:34:55.092Z,100412.44
2018-01-10T09:37:23.092Z,100407.77
2018-01-10T09:39:54.600Z,100408.12
2018-01-10T09:42:22.617Z,100408.59
2018-01-10T09:44:53.705Z,100410.55
2018-01-10T09:47:21.730Z,100409.69
2018-01-10T09:49:56.079Z,100407.48
2018-01-10T09:52:24.398Z,100410.05
2018-01-10T09:54:55.337Z,100412.99
2018-01-10T09:57:23.445Z,100411.78
2018-01-10T09:59:55.010Z,100416.95
2018-01-10T10:02:23.183Z,100411.48
2018-01-10T10:04:53.683Z,100407.77
2018-01-10T10:07:21.727Z,100409.81
2018-01-10T10:09:55.211Z,100407.56
2018-01-10T10:12:23.278Z,100407.62
2018-01-10T10:14:54.926Z,100408.43
2018-01-10T10:17:22.944Z,100405.70
2018-01-10T10:19:53.725Z,100395.41
2018-01-10T10:22:21.754Z,100394.77
2018-01-10T10:24:56.128Z,100400.52
2018-01-10T10:27:24.282Z,100388.19
2018-01-10T10:29:54.344Z,100401.66
2018-01-10T10:32:22.508Z,100395.84
2018-01-10T10:34:54.565Z,100400.99
2018-01-10T10:37:22.561Z,100395.78
2018-01-10T10:39:54.092Z,100393.16
2018-01-10T10:42:22.093Z,100385.89
2018-01-10T10:44:53.794Z,100381.44
2018-01-10T10:47:21.848Z,100383.16
2018-01-10T10:49:53.086Z,100379.22
2018-01-10T10:52:21.116Z,100378.77
2018-01-10T10:57:22.066Z,100365.77
2018-01-10T10:59:54.032Z,100374.55
2018-01-10T11:02:22.047Z,100370.92
2018-01-10T11:04:56.820Z,100369.69
2018-01-10T11:07:24.820Z,100369.72
2018-01-10T11:09:53.968Z,100368.27
2018-01-10T11:12:21.991Z,100370.38
2018-01-10T11:14:56.867Z,100353.64
2018-01-10T11:17:24.885Z,100357.44
2018-01-10T11:19:54.112Z,100361.34
2018-01-10T11:22:22.321Z,100353.33
2018-01-10T11:24:53.724Z,100355.06
2018-01-10T11:27:22.028Z,100358.94
2018-01-10T11:29:56.670Z,100360.70
2018-01-10T11:32:24.879Z,100351.78
2018-01-10T11:34:54.141Z,100346.59
2018-01-10T11:37:22.146Z,100347.38
2018-01-10T11:39:53.720Z,100339.52
2018-01-10T11:42:21.732Z,100340.13
2018-01-10T11:44:56.245Z,100338.24
2018-01-10T11:47:24.264Z,100330.92
2018-01-10T11:49:57.046Z,100328.84
2018-01-10T11:52:25.082Z,100317.83
2018-01-10T11:54:54.193Z,100314.25
2018-01-10T11:57:22.185Z,100317.86
2018-01-10T11:59:56.802Z,100314.39
2018-01-10T12:02:24.811Z,100316.04
2018-01-10T12:04:54.629Z,100317.80
2018-01-10T12:07:22.910Z,100314.31
2018-01-10T12:09:54.041Z,100307.69
2018-01-10T12:12:22.085Z,100307.30
2018-01-10T12:14:53.146Z,100298.37
2018-01-10T12:17:21.436Z,100300.41
2018-01-10T12:19:56.540Z,100296.86
2018-01-10T12:22:24.549Z,100293.45
2018-01-10T12:24:54.052Z,100291.02
2018-01-10T12:27:22.077Z,100289.64
2018-01-10T12:29:53.180Z,100282.85
2018-01-10T12:32:21.237Z,100282.69
2018-01-10T12:34:53.397Z,100280.44
2018-01-10T12:37:21.445Z,100280.19
2018-01-10T12:39:55.920Z,100280.13
2018-01-10T12:42:23.951Z,100280.25
2018-01-10T12:44:55.701Z,100275.08
2018-01-10T12:47:23.995Z,100274.55
2018-01-10T12:49:54.143Z,100269.70
2018-01-10T12:52:22.369Z,100276.21
2018-01-10T12:54:53.629Z,100266.44
2018-01-10T12:57:21.860Z,100272.59
2018-01-10T12:59:53.056Z,100268.63
2018-01-10T13:02:21.085Z,100266.98
2018-01-10T13:04:52.434Z,100259.44
2018-01-10T13:07:20.425Z,100250.06
2018-01-10T13:09:53.390Z,100256.23
2018-01-10T13:12:21.405Z,100246.63
2018-01-10T13:14:55.748Z,100245.80
2018-01-10T13:17:24.313Z,100236.41
2018-01-10T13:19:55.686Z,100237.27
2018-01-10T13:22:23.717Z,100236.51
2018-01-10T13:24:54.950Z,100236.23
2018-01-10T13:27:22.973Z,100238.82
2018-01-10T13:29:57.060Z,100235.94
2018-01-10T13:32:25.399Z,100241.55
2018-01-10T13:34:54.525Z,100246.80
2018-01-10T13:37:22.672Z,100244.66
2018-01-10T13:39:56.466Z,100242.45
2018-01-10T13:42:24.440Z,100239.41
2018-01-10T13:44:53.983Z,100236.69
2018-01-10T13:47:21.986Z,100240.77
2018-01-10T13:49:56.681Z,100238.08
2018-01-10T13:52:24.756Z,100239.48
2018-01-10T13:54:55.761Z,100239.86
2018-01-10T13:57:24.056Z,100248.89
2018-01-10T13:59:53.808Z,100245.88
2018-01-10T14:02:21.964Z,100253.94
2018-01-10T14:04:54.837Z,100255.64
2018-01-10T14:07:22.877Z,100261.34
2018-01-10T14:09:53.764Z,100259.48
2018-01-10T14:12:22.192Z,100269.62
2018-01-10T14:14:53.156Z,100269.55
2018-01-10T14:17:21.209Z,100272.72
2018-01-10T14:19:52.489Z,100275.56
2018-01-10T14:22:20.509Z,100269.39
2018-01-10T14:24:53.539Z,100266.17
2018-01-10T14:27:21.526Z,100277.72
2018-01-10T14:29:52.546Z,100276.28
2018-01-10T14:32:20.892Z,100281.47
2018-01-10T14:34:52.185Z,100283.27
2018-01-10T14:37:20.211Z,100286.89
2018-01-10T14:39:48.214Z,100285.02
2018-01-10T14:42:19.623Z,100286.42
2018-01-10T14:44:47.629Z,100285.47
2018-01-10T14:47:15.630Z,100290.70
2018-01-10T14:49:43.815Z,100288.59
2018-01-10T14:52:11.790Z,100287.83
2018-01-10T14:54:40.324Z,100287.97
2018-01-10T14:57:08.376Z,100285.78
2018-01-10T14:59:36.400Z,100286.73
2018-01-10T15:02:04.428Z,100286.12
2018-01-10T15:04:32.656Z,100290.12
2018-01-10T15:07:00.686Z,100286.64
2018-01-10T15:09:28.721Z,100288.31
2018-01-10T15:11:57.096Z,100290.00
2018-01-10T15:14:25.468Z,100296.55
2018-01-10T15:16:53.480Z,100302.33
2018-01-10T15:19:21.492Z,100305.10
2018-01-10T15:21:49.513Z,100303.11
2018-01-10T15:24:17.541Z,100308.20
2018-01-10T15:26:45.540Z,100305.58
2018-01-10T15:29:13.566Z,100311.08
2018-01-10T15:31:41.600Z,100310.06
2018-01-10T15:34:09.636Z,100304.78
2018-01-10T15:36:38.434Z,100310.63
2018-01-10T15:39:07.046Z,100310.72
2018-01-10T15:41:35.084Z,100316.69
2018-01-10T15:44:03.106Z,100320.42
2018-01-10T15:46:31.121Z,100317.59
2018-01-10T15:48:59.981Z,100311.80
2018-01-10T15:51:28.370Z,100317.09
2018-01-10T15:53:56.651Z,100314.10
2018-01-10T15:56:24.691Z,100316.41
2018-01-10T15:58:52.691Z,100320.58
2018-01-10T16:01:20.720Z,100326.20
2018-01-10T16:03:48.964Z,100322.23
2018-01-10T16:06:17.233Z,100324.97
2018-01-10T16:08:45.221Z,100325.58
2018-01-10T16:11:13.360Z,100327.83
2018-01-10T16:13:41.410Z,100329.63
2018-01-10T16:16:13.213Z,100327.80
2018-01-10T16:18:41.247Z,100329.28
2018-01-10T16:21:09.245Z,100328.64
2018-01-10T16:23:37.291Z,100325.44
2018-01-10T16:26:05.309Z,100323.34
2018-01-10T16:28:33.312Z,100318.06
2018-01-10T16:31:01.319Z,100318.97
2018-01-10T16:33:29.356Z,100320.50
2018-01-10T16:35:57.366Z,100320.10
2018-01-10T16:38:25.713Z,100328.00
2018-01-10T16:40:53.741Z,100321.13
2018-01-10T16:43:21.851Z,100327.72
2018-01-10T16:45:49.865Z,100338.04
2018-01-10T16:48:17.914Z,100334.12
2018-01-10T16:50:45.913Z,100335.58
2018-01-10T16:53:14.458Z,100337.88
2018-01-10T16:55:42.508Z,100335.95
2018-01-10T16:58:10.946Z,100338.73
2018-01-10T17:00:38.951Z,100341.17
2018-01-10T17:03:06.976Z,100340.51
2018-01-10T17:05:35.649Z,100346.92
2018-01-10T17:08:03.802Z,100346.46
2018-01-10T17:10:31.868Z,100350.69
2018-01-10T17:12:59.877Z,100356.75
2018-01-10T17:15:27.880Z,100353.89
2018-01-10T17:17:55.975Z,100355.17
2018-01-10T17:20:23.980Z,100353.64
2018-01-10T17:22:52.258Z,100357.27
2018-01-10T17:25:20.264Z,100358.16
2018-01-10T17:27:48.294Z,100364.42
2018-01-10T17:30:16.303Z,100362.75
2018-01-10T17:32:44.376Z,100362.95
2018-01-10T17:35:12.381Z,100360.78
2018-01-10T17:37:40.399Z,100360.85
2018-01-10T17:40:08.407Z,100361.02
2018-01-10T17:42:36.452Z,100361.49
2018-01-10T17:45:04.540Z,100368.73
2018-01-10T17:47:32.551Z,100372.68
2018-01-10T17:50:00.577Z,100367.72
2018-01-10T17:52:28.577Z,100380.04
2018-01-10T17:54:56.604Z,100378.61
2018-01-10T17:57:24.964Z,100379.79
2018-01-10T17:59:54.868Z,100373.23
2018-01-10T18:02:22.860Z,100375.42
2018-01-10T18:04:54.000Z,100378.39
2018-01-10T18:07:22.003Z,100379.70
2018-01-10T18:09:55.048Z,100376.05
2018-01-10T18:12:23.055Z,100375.49
2018-01-10T18:14:54.702Z,100376.20
2018-01-10T18:17:22.712Z,100379.91
2018-01-10T18:19:54.065Z,100385.39
2018-01-10T18:22:22.320Z,100379.67
2018-01-10T18:24:55.103Z,100379.98
2018-01-10T18:27:23.104Z,100392.25
2018-01-10T18:29:53.825Z,100394.73
2018-01-10T18:32:21.851Z,100388.16
2018-01-10T18:34:57.004Z,100394.23
2018-01-10T18:37:25.281Z,100395.63
2018-01-10T18:39:54.032Z,100391.12
2018-01-10T18:42:22.141Z,100395.55
2018-01-10T18:44:56.962Z,100399.17
2018-01-10T18:47:25.379Z,100393.47
2018-01-10T18:49:54.640Z,100392.28
2018-01-10T18:52:22.645Z,100394.29
2018-01-10T18:54:56.381Z,100387.17
2018-01-10T18:57:24.901Z,100393.78
2018-01-10T18:59:54.109Z,100393.52
2018-01-10T19:02:22.128Z,100395.75
2018-01-10T19:04:56.944Z,100398.49
2018-01-10T19:07:24.970Z,100397.89
2018-01-10T19:09:54.937Z,100397.70
2018-01-10T19:12:22.988Z,100395.00
2018-01-10T19:14:54.844Z,100399.27
2018-01-10T19:17:22.850Z,100400.65
2018-01-10T19:19:53.858Z,100401.44
2018-01-10T19:22:21.856Z,100404.33
2018-01-10T19:24:53.204Z,100404.87
2018-01-10T19:27:21.216Z,100409.60
2018-01-10T19:29:52.854Z,100402.30
2018-01-10T19:32:20.827Z,100401.55
2018-01-10T19:37:21.499Z,100405.39
2018-01-10T19:39:52.617Z,100402.00
2018-01-10T19:42:20.802Z,100395.30
2018-01-10T19:47:21.932Z,100402.58
2018-01-10T19:49:53.781Z,100406.72
2018-01-10T19:52:21.812Z,100409.28
2018-01-10T19:54:56.414Z,100411.32
2018-01-10T19:57:24.438Z,100413.52
2018-01-10T19:59:54.227Z,100413.81
2018-01-10T20:02:22.220Z,100416.95
2018-01-10T20:04:53.221Z,100416.37
2018-01-10T20:07:21.283Z,100420.28
2018-01-10T20:09:52.592Z,100430.09
2018-01-10T20:12:20.629Z,100426.80
2018-01-10T20:14:50.064Z,100430.88
2018-01-10T20:17:20.157Z,100434.39
2018-01-10T20:19:48.174Z,100435.81
2018-01-10T20:22:19.186Z,100438.51
2018-01-10T20:24:47.216Z,100442.07
2018-01-10T20:27:18.121Z,100440.74
2018-01-10T20:29:46.157Z,100437.80
2018-01-10T20:32:14.161Z,100440.44
2018-01-10T20:34:42.206Z,100443.17
2018-01-10T20:37:10.430Z,100434.20
2018-01-10T20:39:38.450Z,100444.30
2018-01-10T20:42:06.488Z,100443.02
2018-01-10T20:44:34.485Z,100447.18
2018-01-10T20:47:02.528Z,100447.75
2018-01-10T20:49:30.589Z,100448.75
2018-01-10T20:51:58.616Z,100446.36
2018-01-10T20:54:26.640Z,100449.71
2018-01-10T20:56:54.683Z,100450.27
2018-01-10T20:59:22.698Z,100453.92
2018-01-10T21:01:50.756Z,100455.52
2018-01-10T21:04:18.776Z,100446.84
2018-01-10T21:06:47.404Z,100446.99
2018-01-10T21:09:15.431Z,100447.37
2018-01-10T21:11:43.460Z,100449.32
2018-01-10T21:14:11.686Z,100447.31
2018-01-10T21:16:39.687Z,100445.59
2018-01-10T21:19:07.714Z,100442.03
2018-01-10T21:21:35.729Z,100447.59
2018-01-10T21:24:03.752Z,100446.11
2018-01-10T21:26:31.802Z,100452.32
2018-01-10T21:28:59.820Z,100447.28
2018-01-10T21:31:27.835Z,100447.59
2018-01-10T21:33:55.869Z,100451.52
2018-01-10T21:36:24.401Z,100450.78
2018-01-10T21:38:52.743Z,100451.80
2018-01-10T21:41:20.750Z,100461.61
2018-01-10T21:43:49.236Z,100454.67
2018-01-10T21:46:17.233Z,100457.78
2018-01-10T21:48:45.250Z,100462.28
2018-01-10T21:51:13.341Z,100461.84
2018-01-10T21:53:41.349Z,100460.80
2018-01-10T21:56:09.727Z,100465.19
2018-01-10T21:58:37.740Z,100468.09
2018-01-10T22:01:05.760Z,100467.83
2018-01-10T22:03:33.805Z,100472.48
2018-01-10T22:06:01.792Z,100474.84
2018-01-10T22:08:29.804Z,100479.27
2018-01-10T22:10:57.846Z,100469.02
2018-01-10T22:13:26.120Z,100476.81
2018-01-10T22:15:54.178Z,100482.48
2018-01-10T22:18:22.209Z,100478.30
2018-01-10T22:20:50.254Z,100476.72
2018-01-10T22:23:18.314Z,100482.38
2018-01-10T22:25:46.655Z,100481.47
2018-01-10T22:28:15.062Z,100485.60
2018-01-10T22:30:43.077Z,100484.64
2018-01-10T22:33:11.128Z,100487.08
2018-01-10T22:35:39.467Z,100488.81
2018-01-10T22:38:07.490Z,100489.44
2018-01-10T22:40:35.522Z,100484.23
2018-01-10T22:43:03.538Z,100489.56
2018-01-10T22:45:31.555Z,100485.03
2018-01-10T22:47:59.566Z,100492.11
2018-01-10T22:50:27.585Z,100496.23
2018-01-10T22:52:55.588Z,100496.66
2018-01-10T22:55:23.613Z,100499.69
2018-01-10T22:57:51.637Z,100503.30
2018-01-10T23:00:26.617Z,100503.19
2018-01-10T23:02:54.621Z,100502.29
2018-01-10T23:05:22.633Z,100503.64
2018-01-10T23:07:50.636Z,100503.34
2018-01-10T23:10:19.013Z,100504.93
2018-01-10T23:12:47.025Z,100507.16
2018-01-10T23:15:15.063Z,100504.47
2018-01-10T23:17:43.353Z,100507.92
2018-01-10T23:20:11.375Z,100504.31
2018-01-10T23:22:39.373Z,100509.91
2018-01-10T23:25:07.397Z,100510.19
2018-01-10T23:27:35.411Z,100515.89
2018-01-10T23:30:03.458Z,100511.03
2018-01-10T23:32:31.476Z,100509.52
2018-01-10T23:34:59.468Z,100516.78
2018-01-10T23:37:27.484Z,100517.66
2018-01-10T23:39:55.492Z,100513.78
2018-01-10T23:42:23.517Z,100515.89
2018-01-10T23:44:54.441Z,100517.55
2018-01-10T23:47:22.473Z,100517.63
2018-01-10T23:49:53.707Z,100517.89
2018-01-10T23:52:21.704Z,100510.95
2018-01-10T23:54:53.606Z,100512.93
2018-01-10T23:57:21.600Z,100514.48
2018-01-10T23:59:56.410Z,100514.44
